sensor_id;sensor_type;location;lat;lon;timestamp;pressure;altitude;pressure_sealevel;temperature;humidity
61345;BME280;47216;42.656;23.232;2023-04-23T00:01:46;93849.16;;;8.75;68.41
61345;BME280;47216;42.656;23.232;2023-04-23T00:04:16;93837.19;;;8.74;67.58
61345;BME280;47216;42.656;23.232;2023-04-23T00:06:45;93847.13;;;8.77;67.74
61345;BME280;47216;42.656;23.232;2023-04-23T00:09:14;93845.25;;;8.90;67.51
61345;BME280;47216;42.656;23.232;2023-04-23T00:11:42;93844.13;;;8.86;67.50
61345;BME280;47216;42.656;23.232;2023-04-23T00:14:10;93845.28;;;8.78;67.36
61345;BME280;47216;42.656;23.232;2023-04-23T00:16:38;93849.63;;;8.72;68.29
61345;BME280;47216;42.656;23.232;2023-04-23T00:19:05;93845.22;;;8.73;68.09
61345;BME280;47216;42.656;23.232;2023-04-23T00:21:33;93844.38;;;8.67;67.92
61345;BME280;47216;42.656;23.232;2023-04-23T00:24:00;93834.13;;;8.60;67.49
61345;BME280;47216;42.656;23.232;2023-04-23T00:26:26;93844.19;;;8.57;67.70
61345;BME280;47216;42.656;23.232;2023-04-23T00:28:53;93841.41;;;8.47;67.80
61345;BME280;47216;42.656;23.232;2023-04-23T00:31:20;93838.75;;;8.41;68.15
61345;BME280;47216;42.656;23.232;2023-04-23T00:33:48;93841.16;;;8.19;68.20
61345;BME280;47216;42.656;23.232;2023-04-23T00:36:15;93839.75;;;8.12;69.83
61345;BME280;47216;42.656;23.232;2023-04-23T00:38:44;93843.03;;;8.07;69.39
61345;BME280;47216;42.656;23.232;2023-04-23T00:41:10;93838.63;;;8.08;68.94
61345;BME280;47216;42.656;23.232;2023-04-23T00:43:38;93844.03;;;8.06;70.18
61345;BME280;47216;42.656;23.232;2023-04-23T00:46:06;93830.19;;;8.00;69.77
61345;BME280;47216;42.656;23.232;2023-04-23T00:48:33;93843.34;;;8.11;69.02
61345;BME280;47216;42.656;23.232;2023-04-23T00:51:03;93832.94;;;8.11;69.37
61345;BME280;47216;42.656;23.232;2023-04-23T00:53:31;93840.66;;;8.06;69.68
61345;BME280;47216;42.656;23.232;2023-04-23T00:56:01;93847.78;;;7.98;70.19
61345;BME280;47216;42.656;23.232;2023-04-23T00:58:29;93844.44;;;7.86;70.09
61345;BME280;47216;42.656;23.232;2023-04-23T01:00:57;93841.66;;;7.76;71.25
61345;BME280;47216;42.656;23.232;2023-04-23T01:03:25;93841.66;;;7.76;71.21
61345;BME280;47216;42.656;23.232;2023-04-23T01:05:54;93845.75;;;7.72;71.11
61345;BME280;47216;42.656;23.232;2023-04-23T01:08:22;93839.50;;;7.73;71.24
61345;BME280;47216;42.656;23.232;2023-04-23T01:10:51;93847.31;;;7.73;70.77
61345;BME280;47216;42.656;23.232;2023-04-23T01:13:20;93847.78;;;7.70;70.74
61345;BME280;47216;42.656;23.232;2023-04-23T01:15:49;93846.00;;;7.47;71.38
61345;BME280;47216;42.656;23.232;2023-04-23T01:18:16;93841.25;;;7.32;71.44
61345;BME280;47216;42.656;23.232;2023-04-23T01:20:44;93844.22;;;7.24;72.38
61345;BME280;47216;42.656;23.232;2023-04-23T01:23:12;93836.34;;;7.19;72.50
61345;BME280;47216;42.656;23.232;2023-04-23T01:25:39;93836.88;;;7.09;73.07
61345;BME280;47216;42.656;23.232;2023-04-23T01:28:06;93840.81;;;7.11;73.45
61345;BME280;47216;42.656;23.232;2023-04-23T01:30:34;93835.41;;;7.13;73.05
61345;BME280;47216;42.656;23.232;2023-04-23T01:33:01;93834.28;;;7.21;73.39
61345;BME280;47216;42.656;23.232;2023-04-23T01:35:30;93837.00;;;7.26;72.97
61345;BME280;47216;42.656;23.232;2023-04-23T01:37:58;93841.63;;;7.35;72.77
61345;BME280;47216;42.656;23.232;2023-04-23T01:40:27;93841.03;;;7.45;72.57
61345;BME280;47216;42.656;23.232;2023-04-23T01:42:54;93850.16;;;7.48;72.13
61345;BME280;47216;42.656;23.232;2023-04-23T01:45:21;93849.47;;;7.52;71.53
61345;BME280;47216;42.656;23.232;2023-04-23T01:47:50;93852.19;;;7.46;71.56
61345;BME280;47216;42.656;23.232;2023-04-23T01:50:19;93850.16;;;7.48;71.28
61345;BME280;47216;42.656;23.232;2023-04-23T01:52:47;93843.72;;;7.50;70.95
61345;BME280;47216;42.656;23.232;2023-04-23T01:55:14;93844.50;;;7.51;71.37
61345;BME280;47216;42.656;23.232;2023-04-23T01:57:45;93854.19;;;7.55;71.23
61345;BME280;47216;42.656;23.232;2023-04-23T02:00:14;93835.38;;;7.48;71.76
61345;BME280;47216;42.656;23.232;2023-04-23T02:02:43;93852.72;;;7.60;71.62
61345;BME280;47216;42.656;23.232;2023-04-23T02:05:13;93847.22;;;7.56;70.71
61345;BME280;47216;42.656;23.232;2023-04-23T02:07:41;93856.00;;;7.55;70.79
61345;BME280;47216;42.656;23.232;2023-04-23T02:10:09;93855.22;;;7.54;70.64
61345;BME280;47216;42.656;23.232;2023-04-23T02:12:36;93856.25;;;7.53;71.14
61345;BME280;47216;42.656;23.232;2023-04-23T02:15:05;93856.13;;;7.48;69.89
61345;BME280;47216;42.656;23.232;2023-04-23T02:17:33;93858.63;;;7.43;70.84
61345;BME280;47216;42.656;23.232;2023-04-23T02:20:00;93860.56;;;7.36;71.22
61345;BME280;47216;42.656;23.232;2023-04-23T02:22:27;93852.56;;;7.26;71.07
61345;BME280;47216;42.656;23.232;2023-04-23T02:24:54;93853.34;;;7.03;72.04
61345;BME280;47216;42.656;23.232;2023-04-23T02:27:21;93849.63;;;6.87;72.96
61345;BME280;47216;42.656;23.232;2023-04-23T02:29:47;93852.84;;;6.70;72.93
61345;BME280;47216;42.656;23.232;2023-04-23T02:32:16;93851.94;;;6.77;72.86
61345;BME280;47216;42.656;23.232;2023-04-23T02:34:43;93853.84;;;6.69;72.82
61345;BME280;47216;42.656;23.232;2023-04-23T02:37:10;93851.25;;;6.69;73.17
61345;BME280;47216;42.656;23.232;2023-04-23T02:39:37;93848.25;;;6.72;72.96
61345;BME280;47216;42.656;23.232;2023-04-23T02:42:04;93851.84;;;6.71;73.13
61345;BME280;47216;42.656;23.232;2023-04-23T02:44:31;93857.59;;;6.73;73.15
61345;BME280;47216;42.656;23.232;2023-04-23T02:46:57;93856.56;;;6.74;72.89
61345;BME280;47216;42.656;23.232;2023-04-23T02:49:26;93856.72;;;6.80;72.72
61345;BME280;47216;42.656;23.232;2023-04-23T02:51:52;93854.91;;;6.80;73.33
61345;BME280;47216;42.656;23.232;2023-04-23T02:54:19;93855.47;;;6.82;72.37
61345;BME280;47216;42.656;23.232;2023-04-23T02:56:48;93854.13;;;6.80;72.70
61345;BME280;47216;42.656;23.232;2023-04-23T02:59:18;93864.13;;;6.88;72.32
61345;BME280;47216;42.656;23.232;2023-04-23T03:01:45;93858.53;;;6.91;72.62
61345;BME280;47216;42.656;23.232;2023-04-23T03:04:12;93861.91;;;7.03;72.03
61345;BME280;47216;42.656;23.232;2023-04-23T03:06:40;93867.19;;;7.08;72.21
61345;BME280;47216;42.656;23.232;2023-04-23T03:09:07;93870.25;;;7.05;71.76
61345;BME280;47216;42.656;23.232;2023-04-23T03:11:34;93871.25;;;7.04;72.02
61345;BME280;47216;42.656;23.232;2023-04-23T03:14:00;93875.44;;;7.05;72.12
61345;BME280;47216;42.656;23.232;2023-04-23T03:16:28;93860.44;;;7.07;71.25
61345;BME280;47216;42.656;23.232;2023-04-23T03:18:55;93860.44;;;7.07;71.98
61345;BME280;47216;42.656;23.232;2023-04-23T03:21:22;93869.78;;;7.08;72.20
61345;BME280;47216;42.656;23.232;2023-04-23T03:23:50;93868.09;;;7.02;71.96
61345;BME280;47216;42.656;23.232;2023-04-23T03:26:17;93872.75;;;7.00;72.22
61345;BME280;47216;42.656;23.232;2023-04-23T03:28:44;93867.19;;;6.97;71.77
61345;BME280;47216;42.656;23.232;2023-04-23T03:31:11;93865.50;;;6.90;72.30
61345;BME280;47216;42.656;23.232;2023-04-23T03:33:37;93867.19;;;6.85;72.19
61345;BME280;47216;42.656;23.232;2023-04-23T03:36:04;93871.69;;;6.78;72.49
61345;BME280;47216;42.656;23.232;2023-04-23T03:38:31;93876.50;;;6.74;72.66
61345;BME280;47216;42.656;23.232;2023-04-23T03:40:59;93876.41;;;6.81;73.15
61345;BME280;47216;42.656;23.232;2023-04-23T03:43:26;93873.38;;;6.84;73.02
61345;BME280;47216;42.656;23.232;2023-04-23T03:45:53;93868.63;;;6.81;72.56
61345;BME280;47216;42.656;23.232;2023-04-23T03:48:20;93870.34;;;6.87;72.56
61345;BME280;47216;42.656;23.232;2023-04-23T03:50:47;93875.53;;;6.87;72.17
61345;BME280;47216;42.656;23.232;2023-04-23T03:53:13;93874.38;;;6.83;72.39
61345;BME280;47216;42.656;23.232;2023-04-23T03:55:42;93875.38;;;6.70;72.63
61345;BME280;47216;42.656;23.232;2023-04-23T03:58:10;93876.41;;;6.81;72.95
61345;BME280;47216;42.656;23.232;2023-04-23T04:00:37;93885.63;;;6.65;72.72
61345;BME280;47216;42.656;23.232;2023-04-23T04:03:03;93884.28;;;6.74;72.88
61345;BME280;47216;42.656;23.232;2023-04-23T04:05:30;93877.66;;;6.78;72.92
61345;BME280;47216;42.656;23.232;2023-04-23T04:07:57;93887.50;;;6.58;72.97
61345;BME280;47216;42.656;23.232;2023-04-23T04:10:24;93887.19;;;6.54;73.42
61345;BME280;47216;42.656;23.232;2023-04-23T04:12:51;93889.28;;;6.45;73.61
61345;BME280;47216;42.656;23.232;2023-04-23T04:15:21;93884.88;;;6.46;74.12
61345;BME280;47216;42.656;23.232;2023-04-23T04:17:48;93895.25;;;6.46;73.85
61345;BME280;47216;42.656;23.232;2023-04-23T04:20:14;93883.09;;;6.46;74.25
61345;BME280;47216;42.656;23.232;2023-04-23T04:22:41;93893.47;;;6.58;74.30
61345;BME280;47216;42.656;23.232;2023-04-23T04:25:08;93896.06;;;6.58;74.71
61345;BME280;47216;42.656;23.232;2023-04-23T04:27:36;93898.38;;;6.78;74.84
61345;BME280;47216;42.656;23.232;2023-04-23T04:30:04;93893.47;;;7.00;74.28
61345;BME280;47216;42.656;23.232;2023-04-23T04:32:33;93895.06;;;7.13;73.50
61345;BME280;47216;42.656;23.232;2023-04-23T04:35:00;93898.78;;;7.29;72.85
61345;BME280;47216;42.656;23.232;2023-04-23T04:37:27;93899.25;;;7.49;72.53
61345;BME280;47216;42.656;23.232;2023-04-23T04:39:54;93891.22;;;7.51;71.85
61345;BME280;47216;42.656;23.232;2023-04-23T04:42:21;93903.72;;;7.66;71.84
61345;BME280;47216;42.656;23.232;2023-04-23T04:44:48;93897.19;;;7.75;71.79
61345;BME280;47216;42.656;23.232;2023-04-23T04:47:14;93904.94;;;7.87;71.59
61345;BME280;47216;42.656;23.232;2023-04-23T04:49:43;93905.28;;;7.90;71.34
61345;BME280;47216;42.656;23.232;2023-04-23T04:52:10;93911.34;;;8.08;71.05
61345;BME280;47216;42.656;23.232;2023-04-23T04:54:36;93904.31;;;8.08;71.16
61345;BME280;47216;42.656;23.232;2023-04-23T04:57:03;93901.81;;;8.25;70.11
61345;BME280;47216;42.656;23.232;2023-04-23T04:59:30;93907.97;;;8.36;70.08
61345;BME280;47216;42.656;23.232;2023-04-23T05:01:57;93908.97;;;8.47;70.00
61345;BME280;47216;42.656;23.232;2023-04-23T05:04:24;93909.41;;;8.55;69.62
61345;BME280;47216;42.656;23.232;2023-04-23T05:06:53;93911.06;;;8.61;69.67
61345;BME280;47216;42.656;23.232;2023-04-23T05:09:20;93903.53;;;8.77;70.18
61345;BME280;47216;42.656;23.232;2023-04-23T05:11:46;93912.84;;;8.90;70.09
61345;BME280;47216;42.656;23.232;2023-04-23T05:14:13;93908.66;;;9.05;69.84
61345;BME280;47216;42.656;23.232;2023-04-23T05:16:40;93911.47;;;9.72;79.49
61345;BME280;47216;42.656;23.232;2023-04-23T05:19:07;93912.81;;;10.35;77.01
61345;BME280;47216;42.656;23.232;2023-04-23T05:21:34;93902.97;;;10.69;73.48
61345;BME280;47216;42.656;23.232;2023-04-23T05:24:02;93909.59;;;10.77;70.11
61345;BME280;47216;42.656;23.232;2023-04-23T05:26:29;93906.44;;;10.75;68.34
61345;BME280;47216;42.656;23.232;2023-04-23T05:28:56;93908.53;;;10.78;67.07
61345;BME280;47216;42.656;23.232;2023-04-23T05:31:23;93908.78;;;10.77;66.32
61345;BME280;47216;42.656;23.232;2023-04-23T05:33:49;93910.56;;;10.71;67.09
61345;BME280;47216;42.656;23.232;2023-04-23T05:36:16;93910.38;;;10.78;66.54
61345;BME280;47216;42.656;23.232;2023-04-23T05:38:43;93915.88;;;10.81;65.71
61345;BME280;47216;42.656;23.232;2023-04-23T05:41:12;93922.38;;;10.79;66.34
61345;BME280;47216;42.656;23.232;2023-04-23T05:43:38;93924.72;;;10.80;65.85
61345;BME280;47216;42.656;23.232;2023-04-23T05:46:05;93926.78;;;10.78;65.73
61345;BME280;47216;42.656;23.232;2023-04-23T05:48:32;93921.00;;;10.71;65.89
61345;BME280;47216;42.656;23.232;2023-04-23T05:50:59;93930.38;;;10.72;66.03
61345;BME280;47216;42.656;23.232;2023-04-23T05:53:26;93932.41;;;10.65;66.01
61345;BME280;47216;42.656;23.232;2023-04-23T05:55:53;93933.44;;;10.64;65.86
61345;BME280;47216;42.656;23.232;2023-04-23T05:58:22;93937.38;;;10.66;65.87
61345;BME280;47216;42.656;23.232;2023-04-23T06:00:48;93931.97;;;10.73;66.29
61345;BME280;47216;42.656;23.232;2023-04-23T06:03:17;93930.25;;;10.84;65.60
61345;BME280;47216;42.656;23.232;2023-04-23T06:05:44;93939.16;;;10.88;65.74
61345;BME280;47216;42.656;23.232;2023-04-23T06:08:10;93929.59;;;10.99;65.74
61345;BME280;47216;42.656;23.232;2023-04-23T06:10:37;93929.16;;;11.07;65.28
61345;BME280;47216;42.656;23.232;2023-04-23T06:13:04;93928.13;;;11.08;65.27
61345;BME280;47216;42.656;23.232;2023-04-23T06:15:32;93925.53;;;11.13;64.81
61345;BME280;47216;42.656;23.232;2023-04-23T06:17:59;93918.03;;;11.17;64.71
61345;BME280;47216;42.656;23.232;2023-04-23T06:20:25;93916.31;;;11.32;64.37
61345;BME280;47216;42.656;23.232;2023-04-23T06:22:53;93919.91;;;11.26;64.54
61345;BME280;47216;42.656;23.232;2023-04-23T06:25:19;93920.47;;;11.28;64.60
61345;BME280;47216;42.656;23.232;2023-04-23T06:27:46;93917.88;;;11.33;64.09
61345;BME280;47216;42.656;23.232;2023-04-23T06:30:13;93924.91;;;11.28;64.18
61345;BME280;47216;42.656;23.232;2023-04-23T06:32:41;93919.41;;;11.29;65.21
61345;BME280;47216;42.656;23.232;2023-04-23T06:35:08;93916.84;;;11.34;64.66
61345;BME280;47216;42.656;23.232;2023-04-23T06:37:35;93922.31;;;11.33;65.56
61345;BME280;47216;42.656;23.232;2023-04-23T06:40:02;93922.47;;;11.53;64.60
61345;BME280;47216;42.656;23.232;2023-04-23T06:42:29;93920.16;;;11.62;64.67
61345;BME280;47216;42.656;23.232;2023-04-23T06:44:56;93917.44;;;11.84;64.06
61345;BME280;47216;42.656;23.232;2023-04-23T06:47:28;93914.00;;;11.78;64.21
61345;BME280;47216;42.656;23.232;2023-04-23T06:49:56;93904.13;;;11.86;64.57
61345;BME280;47216;42.656;23.232;2023-04-23T06:52:24;93905.25;;;12.00;64.32
61345;BME280;47216;42.656;23.232;2023-04-23T06:54:51;93915.53;;;12.17;64.05
61345;BME280;47216;42.656;23.232;2023-04-23T06:57:17;93907.44;;;12.18;63.45
61345;BME280;47216;42.656;23.232;2023-04-23T06:59:44;93911.13;;;12.23;63.49
61345;BME280;47216;42.656;23.232;2023-04-23T07:02:11;93910.13;;;12.39;63.59
61345;BME280;47216;42.656;23.232;2023-04-23T07:04:37;93915.13;;;12.51;63.21
61345;BME280;47216;42.656;23.232;2023-04-23T07:07:06;93910.91;;;12.45;62.68
61345;BME280;47216;42.656;23.232;2023-04-23T07:09:33;93916.97;;;12.55;62.57
61345;BME280;47216;42.656;23.232;2023-04-23T07:11:59;93916.19;;;12.60;62.66
61345;BME280;47216;42.656;23.232;2023-04-23T07:14:30;93915.44;;;12.75;62.74
61345;BME280;47216;42.656;23.232;2023-04-23T07:16:57;93918.88;;;12.91;61.78
61345;BME280;47216;42.656;23.232;2023-04-23T07:19:24;93912.88;;;13.00;61.60
61345;BME280;47216;42.656;23.232;2023-04-23T07:21:51;93916.00;;;12.97;61.09
61345;BME280;47216;42.656;23.232;2023-04-23T07:24:20;93911.84;;;12.96;60.94
61345;BME280;47216;42.656;23.232;2023-04-23T07:26:47;93909.22;;;13.01;60.99
61345;BME280;47216;42.656;23.232;2023-04-23T07:29:13;93910.28;;;13.11;61.23
61345;BME280;47216;42.656;23.232;2023-04-23T07:31:40;93908.69;;;13.25;61.39
61345;BME280;47216;42.656;23.232;2023-04-23T07:34:07;93905.31;;;13.40;60.67
61345;BME280;47216;42.656;23.232;2023-04-23T07:36:34;93901.91;;;13.55;60.69
61345;BME280;47216;42.656;23.232;2023-04-23T07:39:01;93903.47;;;13.56;59.77
61345;BME280;47216;42.656;23.232;2023-04-23T07:41:31;93903.47;;;13.56;60.27
61345;BME280;47216;42.656;23.232;2023-04-23T07:43:58;93897.69;;;13.54;59.94
61345;BME280;47216;42.656;23.232;2023-04-23T07:46:25;93899.25;;;13.70;59.37
61345;BME280;47216;42.656;23.232;2023-04-23T07:48:52;93905.50;;;13.79;60.41
61345;BME280;47216;42.656;23.232;2023-04-23T07:51:18;93910.72;;;13.95;59.34
61345;BME280;47216;42.656;23.232;2023-04-23T07:53:46;93906.53;;;13.88;60.25
61345;BME280;47216;42.656;23.232;2023-04-23T07:56:15;93913.34;;;14.00;58.92
61345;BME280;47216;42.656;23.232;2023-04-23T07:58:43;93909.09;;;14.09;58.92
61345;BME280;47216;42.656;23.232;2023-04-23T08:01:10;93909.69;;;14.01;59.01
61345;BME280;47216;42.656;23.232;2023-04-23T08:03:37;93908.91;;;14.00;59.15
61345;BME280;47216;42.656;23.232;2023-04-23T08:06:04;93912.25;;;14.11;59.34
61345;BME280;47216;42.656;23.232;2023-04-23T08:08:31;93906.50;;;14.14;59.11
61345;BME280;47216;42.656;23.232;2023-04-23T08:10:58;93902.47;;;14.37;58.90
61345;BME280;47216;42.656;23.232;2023-04-23T08:13:24;93905.56;;;14.49;59.01
61345;BME280;47216;42.656;23.232;2023-04-23T08:15:52;93912.66;;;14.54;58.41
61345;BME280;47216;42.656;23.232;2023-04-23T08:18:19;93903.41;;;14.62;57.65
61345;BME280;47216;42.656;23.232;2023-04-23T08:20:46;93908.91;;;14.65;57.82
61345;BME280;47216;42.656;23.232;2023-04-23T08:23:14;93901.97;;;14.85;56.87
61345;BME280;47216;42.656;23.232;2023-04-23T08:25:40;93901.78;;;14.71;56.82
61345;BME280;47216;42.656;23.232;2023-04-23T08:28:07;93900.69;;;14.82;57.26
61345;BME280;47216;42.656;23.232;2023-04-23T08:30:34;93897.75;;;14.89;56.66
61345;BME280;47216;42.656;23.232;2023-04-23T08:33:02;93894.53;;;14.97;56.50
61345;BME280;47216;42.656;23.232;2023-04-23T08:35:29;93888.97;;;15.09;56.33
61345;BME280;47216;42.656;23.232;2023-04-23T08:37:56;93882.88;;;15.13;56.30
61345;BME280;47216;42.656;23.232;2023-04-23T08:40:23;93892.28;;;15.20;55.64
61345;BME280;47216;42.656;23.232;2023-04-23T08:42:56;93888.78;;;15.29;54.19
61345;BME280;47216;42.656;23.232;2023-04-23T08:45:24;93884.84;;;15.32;54.16
61345;BME280;47216;42.656;23.232;2023-04-23T08:47:52;93877.53;;;15.24;56.09
61345;BME280;47216;42.656;23.232;2023-04-23T08:50:24;93880.56;;;15.41;56.14
61345;BME280;47216;42.656;23.232;2023-04-23T08:52:52;93873.78;;;15.64;55.60
61345;BME280;47216;42.656;23.232;2023-04-23T08:55:20;93875.56;;;15.69;54.61
61345;BME280;47216;42.656;23.232;2023-04-23T08:57:47;93871.78;;;15.80;53.78
61345;BME280;47216;42.656;23.232;2023-04-23T09:00:16;93876.31;;;15.74;53.15
61345;BME280;47216;42.656;23.232;2023-04-23T09:02:45;93867.16;;;15.72;53.45
61345;BME280;47216;42.656;23.232;2023-04-23T09:05:12;93867.16;;;15.72;54.21
61345;BME280;47216;42.656;23.232;2023-04-23T09:07:41;93867.16;;;15.72;54.64
61345;BME280;47216;42.656;23.232;2023-04-23T09:10:09;93865.81;;;15.99;53.79
61345;BME280;47216;42.656;23.232;2023-04-23T09:12:38;93857.31;;;16.07;54.00
61345;BME280;47216;42.656;23.232;2023-04-23T09:15:06;93860.25;;;16.24;53.57
61345;BME280;47216;42.656;23.232;2023-04-23T09:17:37;93860.06;;;16.39;52.42
61345;BME280;47216;42.656;23.232;2023-04-23T09:20:06;93859.38;;;16.34;52.29
61345;BME280;47216;42.656;23.232;2023-04-23T09:22:37;93859.16;;;16.49;51.46
61345;BME280;47216;42.656;23.232;2023-04-23T09:25:06;93858.88;;;16.51;50.66
61345;BME280;47216;42.656;23.232;2023-04-23T09:27:33;93855.72;;;16.30;51.27
61345;BME280;47216;42.656;23.232;2023-04-23T09:30:02;93858.44;;;16.25;52.27
61345;BME280;47216;42.656;23.232;2023-04-23T09:32:32;93848.97;;;16.43;51.82
61345;BME280;47216;42.656;23.232;2023-04-23T09:35:02;93856.38;;;16.41;50.80
61345;BME280;47216;42.656;23.232;2023-04-23T09:37:29;93857.50;;;16.34;50.32
61345;BME280;47216;42.656;23.232;2023-04-23T09:39:57;93843.41;;;16.25;51.02
61345;BME280;47216;42.656;23.232;2023-04-23T09:42:27;93837.81;;;16.32;51.08
61345;BME280;47216;42.656;23.232;2023-04-23T09:44:59;93840.03;;;16.44;50.24
61345;BME280;47216;42.656;23.232;2023-04-23T09:47:29;93835.34;;;16.41;52.00
61345;BME280;47216;42.656;23.232;2023-04-23T09:49:58;93833.16;;;16.43;51.83
61345;BME280;47216;42.656;23.232;2023-04-23T09:52:24;93825.31;;;16.62;52.00
61345;BME280;47216;42.656;23.232;2023-04-23T09:54:55;93821.09;;;16.79;50.11
61345;BME280;47216;42.656;23.232;2023-04-23T09:57:23;93826.78;;;16.87;50.49
61345;BME280;47216;42.656;23.232;2023-04-23T09:59:51;93819.97;;;16.86;49.58
61345;BME280;47216;42.656;23.232;2023-04-23T10:02:18;93828.38;;;16.88;49.43
61345;BME280;47216;42.656;23.232;2023-04-23T10:04:49;93823.22;;;16.96;48.83
61345;BME280;47216;42.656;23.232;2023-04-23T10:07:17;93827.38;;;16.84;50.30
61345;BME280;47216;42.656;23.232;2023-04-23T10:09:44;93818.66;;;17.02;49.91
61345;BME280;47216;42.656;23.232;2023-04-23T10:12:11;93814.59;;;17.23;47.02
61345;BME280;47216;42.656;23.232;2023-04-23T10:14:40;93811.00;;;17.19;47.99
61345;BME280;47216;42.656;23.232;2023-04-23T10:17:08;93809.94;;;17.20;48.84
61345;BME280;47216;42.656;23.232;2023-04-23T10:19:36;93806.06;;;17.32;48.23
61345;BME280;47216;42.656;23.232;2023-04-23T10:22:07;93796.78;;;17.34;47.33
61345;BME280;47216;42.656;23.232;2023-04-23T10:24:38;93794.72;;;17.31;48.22
61345;BME280;47216;42.656;23.232;2023-04-23T10:27:10;93795.00;;;17.30;49.10
61345;BME280;47216;42.656;23.232;2023-04-23T10:29:37;93788.88;;;17.48;48.68
61345;BME280;47216;42.656;23.232;2023-04-23T10:32:05;93790.25;;;17.46;48.09
61345;BME280;47216;42.656;23.232;2023-04-23T10:34:33;93779.81;;;17.40;47.03
61345;BME280;47216;42.656;23.232;2023-04-23T10:37:01;93777.47;;;17.53;48.26
61345;BME280;47216;42.656;23.232;2023-04-23T10:39:31;93782.47;;;17.54;47.15
61345;BME280;47216;42.656;23.232;2023-04-23T10:41:59;93778.25;;;17.53;46.79
61345;BME280;47216;42.656;23.232;2023-04-23T10:44:31;93767.78;;;17.48;47.15
61345;BME280;47216;42.656;23.232;2023-04-23T10:46:58;93762.53;;;17.62;47.77
61345;BME280;47216;42.656;23.232;2023-04-23T10:49:29;93760.50;;;17.73;47.38
61345;BME280;47216;42.656;23.232;2023-04-23T10:52:06;93751.97;;;17.76;47.57
61345;BME280;47216;42.656;23.232;2023-04-23T10:54:34;93760.00;;;17.98;46.03
61345;BME280;47216;42.656;23.232;2023-04-23T10:57:02;93751.88;;;17.95;45.03
61345;BME280;47216;42.656;23.232;2023-04-23T10:59:31;93745.81;;;17.80;45.32
61345;BME280;47216;42.656;23.232;2023-04-23T11:02:04;93748.25;;;18.04;44.88
61345;BME280;47216;42.656;23.232;2023-04-23T11:04:33;93749.81;;;18.19;45.05
61345;BME280;47216;42.656;23.232;2023-04-23T11:07:05;93749.16;;;18.36;44.24
61345;BME280;47216;42.656;23.232;2023-04-23T11:09:39;93737.41;;;18.42;44.87
61345;BME280;47216;42.656;23.232;2023-04-23T11:12:10;93740.78;;;18.57;44.22
61345;BME280;47216;42.656;23.232;2023-04-23T11:14:47;93730.94;;;18.71;44.58
61345;BME280;47216;42.656;23.232;2023-04-23T11:17:15;93733.97;;;18.78;42.64
61345;BME280;47216;42.656;23.232;2023-04-23T11:20:06;93721.34;;;18.98;42.81
61345;BME280;47216;42.656;23.232;2023-04-23T11:22:37;93722.72;;;18.95;41.92
61345;BME280;47216;42.656;23.232;2023-04-23T11:25:08;93727.22;;;18.95;40.41
61345;BME280;47216;42.656;23.232;2023-04-23T11:27:37;93725.41;;;19.04;40.10
61345;BME280;47216;42.656;23.232;2023-04-23T11:30:05;93716.03;;;19.20;41.30
61345;BME280;47216;42.656;23.232;2023-04-23T11:32:36;93703.91;;;19.28;40.42
61345;BME280;47216;42.656;23.232;2023-04-23T11:35:04;93700.50;;;19.36;39.79
61345;BME280;47216;42.656;23.232;2023-04-23T11:37:32;93703.72;;;19.24;38.06
61345;BME280;47216;42.656;23.232;2023-04-23T11:40:04;93703.63;;;19.29;39.37
61345;BME280;47216;42.656;23.232;2023-04-23T11:42:40;93705.00;;;19.27;38.17
61345;BME280;47216;42.656;23.232;2023-04-23T11:45:14;93694.44;;;19.36;37.75
61345;BME280;47216;42.656;23.232;2023-04-23T11:47:42;93699.88;;;19.30;38.01
61345;BME280;47216;42.656;23.232;2023-04-23T11:50:09;93693.97;;;19.34;38.38
61345;BME280;47216;42.656;23.232;2023-04-23T11:52:36;93693.09;;;19.47;38.90
61345;BME280;47216;42.656;23.232;2023-04-23T11:55:07;93691.94;;;19.70;38.11
61345;BME280;47216;42.656;23.232;2023-04-23T11:57:35;93686.38;;;19.81;35.08
61345;BME280;47216;42.656;23.232;2023-04-23T12:00:10;93688.88;;;19.94;35.27
61345;BME280;47216;42.656;23.232;2023-04-23T12:02:38;93690.72;;;19.94;32.01
61345;BME280;47216;42.656;23.232;2023-04-23T12:05:15;93676.88;;;19.97;31.51
61345;BME280;47216;42.656;23.232;2023-04-23T12:07:41;93694.00;;;19.91;32.93
61345;BME280;47216;42.656;23.232;2023-04-23T12:10:16;93684.94;;;19.75;33.93
61345;BME280;47216;42.656;23.232;2023-04-23T12:12:42;93687.59;;;19.75;33.78
61345;BME280;47216;42.656;23.232;2023-04-23T12:15:10;93684.47;;;19.72;33.69
61345;BME280;47216;42.656;23.232;2023-04-23T12:17:37;93685.81;;;19.61;34.42
61345;BME280;47216;42.656;23.232;2023-04-23T12:20:04;93681.47;;;19.65;33.68
61345;BME280;47216;42.656;23.232;2023-04-23T12:22:31;93673.38;;;19.62;34.31
61345;BME280;47216;42.656;23.232;2023-04-23T12:24:58;93671.25;;;19.72;33.85
61345;BME280;47216;42.656;23.232;2023-04-23T12:27:29;93672.59;;;19.61;32.47
61345;BME280;47216;42.656;23.232;2023-04-23T12:29:59;93674.75;;;19.59;32.48
61345;BME280;47216;42.656;23.232;2023-04-23T12:32:25;93673.38;;;19.53;33.08
61345;BME280;47216;42.656;23.232;2023-04-23T12:34:54;93676.81;;;19.62;31.79
61345;BME280;47216;42.656;23.232;2023-04-23T12:37:23;93667.78;;;19.63;31.31
61345;BME280;47216;42.656;23.232;2023-04-23T12:39:50;93673.69;;;19.60;30.70
61345;BME280;47216;42.656;23.232;2023-04-23T12:42:19;93670.06;;;19.39;31.62
61345;BME280;47216;42.656;23.232;2023-04-23T12:44:47;93667.41;;;19.39;32.00
61345;BME280;47216;42.656;23.232;2023-04-23T12:47:16;93663.06;;;19.43;32.48
61345;BME280;47216;42.656;23.232;2023-04-23T12:49:44;93669.59;;;19.37;32.14
61345;BME280;47216;42.656;23.232;2023-04-23T12:52:11;93662.06;;;19.21;31.53
61345;BME280;47216;42.656;23.232;2023-04-23T12:54:39;93660.91;;;19.05;32.35
61345;BME280;47216;42.656;23.232;2023-04-23T12:57:10;93664.56;;;18.86;32.67
61345;BME280;47216;42.656;23.232;2023-04-23T12:59:38;93663.09;;;18.80;33.04